createdAt,value
2019-05-03T00:00:19.597Z,1005.22
2019-05-03T00:01:21.751Z,1005.26
2019-05-03T00:02:22.268Z,1005.21
2019-05-03T00:03:22.704Z,1005.22
2019-05-03T00:04:23.135Z,1005.23
2019-05-03T00:05:23.574Z,1005.22
2019-05-03T00:06:24.005Z,1005.24
2019-05-03T00:07:24.469Z,1005.28
2019-05-03T00:08:24.895Z,1005.24
2019-05-03T00:09:26.328Z,1005.20
2019-05-03T00:10:26.761Z,1005.23
2019-05-03T00:11:27.205Z,1005.26
2019-05-03T00:12:27.658Z,1005.25
2019-05-03T00:13:28.102Z,1005.22
2019-05-03T00:14:28.528Z,1005.23
2019-05-03T00:15:28.962Z,1005.24
2019-05-03T00:16:29.396Z,1005.30
2019-05-03T00:17:52.595Z,1005.26
2019-05-03T00:18:53.129Z,1005.23
2019-05-03T00:19:53.559Z,1005.26
2019-05-03T00:20:53.991Z,1005.25
2019-05-03T00:21:54.449Z,1005.28
2019-05-03T00:22:54.889Z,1005.34
2019-05-03T00:23:55.315Z,1005.35
2019-05-03T00:25:05.291Z,1005.30
2019-05-03T00:26:02.673Z,1005.33
2019-05-03T00:27:03.257Z,1005.26
2019-05-03T00:28:03.690Z,1005.31
2019-05-03T00:29:04.128Z,1005.28
2019-05-03T00:30:04.554Z,1005.27
2019-05-03T00:31:05.998Z,1005.32
2019-05-03T00:32:06.454Z,1005.28
2019-05-03T00:33:06.889Z,1005.29
2019-05-03T00:34:07.415Z,1005.27
2019-05-03T00:35:08.870Z,1005.28
2019-05-03T00:36:09.323Z,1005.36
2019-05-03T00:37:09.781Z,1005.35
2019-05-03T00:38:12.247Z,1005.32
2019-05-03T00:39:21.673Z,1005.37
2019-05-03T00:40:22.187Z,1005.37
2019-05-03T00:41:29.259Z,1005.34
2019-05-03T00:42:31.668Z,1005.35
2019-05-03T00:43:54.228Z,1005.33
2019-05-03T00:44:54.659Z,1005.28
2019-05-03T00:46:02.102Z,1005.33
2019-05-03T00:47:02.606Z,1005.31
2019-05-03T00:48:04.040Z,1005.30
2019-05-03T00:49:04.470Z,1005.31
2019-05-03T00:50:05.904Z,1005.32
2019-05-03T00:51:06.350Z,1005.30
2019-05-03T00:52:06.808Z,1005.32
2019-05-03T00:53:07.239Z,1005.30
2019-05-03T00:54:08.669Z,1005.29
2019-05-03T00:55:16.064Z,1005.31
2019-05-03T00:56:15.500Z,1005.31
2019-05-03T00:57:20.285Z,1005.29
2019-05-03T00:58:22.441Z,1005.32
2019-05-03T01:00:41.738Z,1005.27
2019-05-03T01:01:48.766Z,1005.30
2019-05-03T01:02:49.209Z,1005.24
2019-05-03T01:03:49.635Z,1005.27
2019-05-03T01:04:51.843Z,1005.21
2019-05-03T01:06:22.277Z,1005.22
2019-05-03T01:07:22.888Z,1005.27
2019-05-03T01:08:25.328Z,1005.21
2019-05-03T01:09:25.764Z,1005.15
2019-05-03T01:10:26.200Z,1005.19
2019-05-03T01:11:26.625Z,1005.20
2019-05-03T01:12:27.071Z,1005.26
2019-05-03T01:13:27.501Z,1005.26
2019-05-03T01:14:28.935Z,1005.24
2019-05-03T01:15:29.369Z,1005.26
2019-05-03T01:16:37.759Z,1005.24
2019-05-03T01:17:38.232Z,1005.26
2019-05-03T01:18:38.681Z,1005.23
2019-05-03T01:19:39.105Z,1005.29
2019-05-03T01:20:42.161Z,1005.26
2019-05-03T01:21:43.062Z,1005.33
2019-05-03T01:22:43.517Z,1005.34
2019-05-03T01:23:43.954Z,1005.32
2019-05-03T01:24:45.394Z,1005.33
2019-05-03T01:25:45.838Z,1005.37
2019-05-03T01:26:46.289Z,1005.37
2019-05-03T01:27:46.738Z,1005.42
2019-05-03T01:28:47.241Z,1005.38
2019-05-03T01:29:47.676Z,1005.44
2019-05-03T01:30:48.099Z,1005.45
2019-05-03T01:31:48.554Z,1005.43
2019-05-03T01:32:49.005Z,1005.41
2019-05-03T01:33:51.668Z,1005.43
2019-05-03T01:34:52.502Z,1005.40
2019-05-03T01:35:52.976Z,1005.44
2019-05-03T01:36:53.420Z,1005.42
2019-05-03T01:37:53.865Z,1005.40
2019-05-03T01:40:12.420Z,1005.39
2019-05-03T01:41:21.786Z,1005.33
2019-05-03T01:42:22.594Z,1005.32
2019-05-03T01:43:23.257Z,1005.36
2019-05-03T01:44:23.680Z,1005.36
2019-05-03T01:45:24.101Z,1005.33
2019-05-03T01:46:24.519Z,1005.33
2019-05-03T01:48:42.204Z,1005.30
2019-05-03T01:49:43.677Z,1005.33
2019-05-03T01:50:44.101Z,1005.33
2019-05-03T01:51:52.701Z,1005.32
2019-05-03T01:52:53.173Z,1005.39
2019-05-03T01:53:54.616Z,1005.38
2019-05-03T01:54:55.051Z,1005.37
2019-05-03T01:55:57.496Z,1005.40
2019-05-03T01:56:59.249Z,1005.38
2019-05-03T01:58:01.942Z,1005.34
2019-05-03T01:59:02.393Z,1005.41
2019-05-03T02:00:19.759Z,1005.36
2019-05-03T02:01:21.993Z,1005.46
2019-05-03T02:02:23.563Z,1005.51
2019-05-03T02:03:24.022Z,1005.44
2019-05-03T02:04:32.269Z,1005.50
2019-05-03T02:05:32.729Z,1005.54
2019-05-03T02:06:33.164Z,1005.48
2019-05-03T02:07:33.617Z,1005.47
2019-05-03T02:08:34.084Z,1005.51
2019-05-03T02:09:34.511Z,1005.57
2019-05-03T02:10:43.580Z,1005.58
2019-05-03T02:11:44.205Z,1005.55
2019-05-03T02:12:45.648Z,1005.54
2019-05-03T02:13:46.073Z,1005.58
2019-05-03T02:14:53.248Z,1005.54
2019-05-03T02:15:53.684Z,1005.57
2019-05-03T02:16:55.153Z,1005.54
2019-05-03T02:17:55.593Z,1005.59
2019-05-03T02:18:59.264Z,1005.59
2019-05-03T02:19:59.698Z,1005.56
2019-05-03T02:21:01.699Z,1005.60
2019-05-03T02:22:02.882Z,1005.59
2019-05-03T02:23:12.278Z,1005.65
2019-05-03T02:24:12.705Z,1005.69
2019-05-03T02:25:14.134Z,1005.64
2019-05-03T02:26:14.561Z,1005.70
2019-05-03T02:27:37.019Z,1005.67
2019-05-03T02:28:37.464Z,1005.69
2019-05-03T02:29:37.908Z,1005.71
2019-05-03T02:30:38.337Z,1005.73
2019-05-03T02:31:38.780Z,1005.69
2019-05-03T02:32:39.214Z,1005.79
2019-05-03T02:33:43.418Z,1005.76
2019-05-03T02:34:44.341Z,1005.72
2019-05-03T02:35:44.788Z,1005.71
2019-05-03T02:36:45.219Z,1005.72
2019-05-03T02:37:45.660Z,1005.72
2019-05-03T02:38:46.105Z,1005.77
2019-05-03T02:39:54.249Z,1005.69
2019-05-03T02:40:54.678Z,1005.81
2019-05-03T02:41:59.777Z,1005.81
2019-05-03T02:43:01.522Z,1005.82
2019-05-03T02:44:06.304Z,1005.77
2019-05-03T02:45:06.796Z,1005.86
2019-05-03T02:46:08.476Z,1005.83
2019-05-03T02:47:08.906Z,1005.77
2019-05-03T02:48:16.633Z,1005.83
2019-05-03T02:49:17.129Z,1005.77
2019-05-03T02:50:19.616Z,1005.78
2019-05-03T02:51:20.075Z,1005.83
2019-05-03T02:52:28.560Z,1005.89
2019-05-03T02:53:29.035Z,1005.87
2019-05-03T02:54:29.485Z,1005.86
2019-05-03T02:55:29.917Z,1005.88
2019-05-03T02:56:30.365Z,1005.87
2019-05-03T02:57:30.789Z,1005.90
2019-05-03T02:58:31.322Z,1005.92
2019-05-03T02:59:31.743Z,1005.94
2019-05-03T03:00:36.139Z,1005.88
2019-05-03T03:01:36.711Z,1005.94
2019-05-03T03:02:45.585Z,1005.94
2019-05-03T03:03:46.248Z,1005.93
2019-05-03T03:04:47.693Z,1005.90
2019-05-03T03:05:48.126Z,1005.87
2019-05-03T03:06:49.654Z,1005.86
2019-05-03T03:07:50.073Z,1005.91
2019-05-03T03:08:50.535Z,1005.93
2019-05-03T03:09:50.972Z,1005.92
2019-05-03T03:10:51.400Z,1005.93
2019-05-03T03:11:51.824Z,1005.97
2019-05-03T03:12:55.140Z,1005.96
2019-05-03T03:13:55.812Z,1005.95
2019-05-03T03:14:56.250Z,1005.91
2019-05-03T03:15:56.678Z,1005.98
2019-05-03T03:16:59.133Z,1005.93
2019-05-03T03:17:59.652Z,1005.93
2019-05-03T03:19:01.153Z,1005.99
2019-05-03T03:20:01.601Z,1005.97
2019-05-03T03:21:02.130Z,1005.96
2019-05-03T03:22:05.664Z,1005.97
2019-05-03T03:23:07.463Z,1006.04
2019-05-03T03:24:08.008Z,1006.03
2019-05-03T03:25:09.450Z,1006.05
2019-05-03T03:26:09.877Z,1006.03
2019-05-03T03:27:11.330Z,1006.04
2019-05-03T03:28:11.765Z,1006.02
2019-05-03T03:29:16.036Z,1006.03
2019-05-03T03:30:17.456Z,1006.02
2019-05-03T03:31:37.957Z,1006.06
2019-05-03T03:32:39.172Z,1006.07
2019-05-03T03:33:58.958Z,1006.09
2019-05-03T03:35:03.552Z,1006.08
2019-05-03T03:36:31.451Z,1006.01
2019-05-03T03:37:15.585Z,1005.98
2019-05-03T03:38:16.227Z,1005.98
2019-05-03T03:39:21.766Z,1006.05
2019-05-03T03:40:22.277Z,1006.04
2019-05-03T03:41:24.974Z,1006.05
2019-05-03T03:42:26.510Z,1006.04
2019-05-03T03:43:26.987Z,1006.03
2019-05-03T03:44:27.457Z,1006.01
2019-05-03T03:45:27.907Z,1006.12
2019-05-03T03:46:36.311Z,1006.07
2019-05-03T03:47:36.772Z,1006.16
2019-05-03T03:48:38.205Z,1006.22
2019-05-03T03:49:38.657Z,1006.17
2019-05-03T03:50:39.092Z,1006.14
2019-05-03T03:51:39.532Z,1006.14
2019-05-03T03:52:39.972Z,1006.21
2019-05-03T03:53:40.400Z,1006.27
2019-05-03T03:54:40.859Z,1006.23
2019-05-03T03:55:41.315Z,1006.25
2019-05-03T03:56:59.373Z,1006.26
2019-05-03T03:57:55.657Z,1006.22
2019-05-03T03:59:05.727Z,1006.28
2019-05-03T04:00:06.362Z,1006.32
2019-05-03T04:01:07.815Z,1006.36
2019-05-03T04:02:08.279Z,1006.37
2019-05-03T04:03:09.729Z,1006.39
2019-05-03T04:04:10.165Z,1006.39
2019-05-03T04:05:16.061Z,1006.45
2019-05-03T04:06:16.536Z,1006.40
2019-05-03T04:07:16.989Z,1006.46
2019-05-03T04:08:17.423Z,1006.51
2019-05-03T04:09:18.925Z,1006.53
2019-05-03T04:10:19.389Z,1006.53
2019-05-03T04:11:20.848Z,1006.52
2019-05-03T04:12:21.360Z,1006.57
2019-05-03T04:13:21.808Z,1006.47
2019-05-03T04:14:22.249Z,1006.52
2019-05-03T04:15:26.019Z,1006.51
2019-05-03T04:16:26.785Z,1006.54
2019-05-03T04:17:27.224Z,1006.55
2019-05-03T04:18:27.656Z,1006.56
2019-05-03T04:19:30.127Z,1006.57
2019-05-03T04:20:30.548Z,1006.55
2019-05-03T04:21:39.733Z,1006.50
2019-05-03T04:22:40.160Z,1006.61
2019-05-03T04:23:42.604Z,1006.60
2019-05-03T04:24:45.809Z,1006.59
2019-05-03T04:25:56.304Z,1006.64
2019-05-03T04:27:13.749Z,1006.66
2019-05-03T04:28:05.756Z,1006.63
2019-05-03T04:29:07.424Z,1006.63
2019-05-03T04:30:07.887Z,1006.69
2019-05-03T04:31:08.410Z,1006.63
2019-05-03T04:32:08.855Z,1006.64
2019-05-03T04:33:16.274Z,1006.67
2019-05-03T04:34:16.704Z,1006.64
2019-05-03T04:35:17.179Z,1006.68
2019-05-03T04:36:17.623Z,1006.67
2019-05-03T04:37:18.058Z,1006.77
2019-05-03T04:38:18.511Z,1006.71
2019-05-03T04:39:20.960Z,1006.80
2019-05-03T04:40:21.441Z,1006.74
2019-05-03T04:41:26.739Z,1006.80
2019-05-03T04:42:27.492Z,1006.83
2019-05-03T04:43:29.951Z,1006.77
2019-05-03T04:44:30.388Z,1006.76
2019-05-03T04:45:30.861Z,1006.82
2019-05-03T04:46:31.305Z,1006.80
2019-05-03T04:47:31.748Z,1006.84
2019-05-03T04:48:32.198Z,1006.81
2019-05-03T04:49:32.642Z,1006.79
2019-05-03T04:50:36.338Z,1006.75
2019-05-03T04:51:37.248Z,1006.89
2019-05-03T04:52:37.679Z,1006.89
2019-05-03T04:53:38.138Z,1006.88
2019-05-03T04:54:38.565Z,1006.89
2019-05-03T04:56:00.362Z,1006.86
2019-05-03T04:57:00.802Z,1006.97
2019-05-03T04:58:08.224Z,1006.92
2019-05-03T04:59:08.651Z,1006.93
2019-05-03T05:00:16.740Z,1006.98
2019-05-03T05:01:17.183Z,1006.94
2019-05-03T05:02:17.615Z,1006.98
2019-05-03T05:03:18.064Z,1006.99
2019-05-03T05:04:18.539Z,1007.02
2019-05-03T05:05:19.002Z,1007.01
2019-05-03T05:06:19.445Z,1007.02
2019-05-03T05:07:19.887Z,1007.05
2019-05-03T05:08:20.327Z,1007.09
2019-05-03T05:09:20.754Z,1007.12
2019-05-03T05:10:21.207Z,1007.15
2019-05-03T05:11:21.656Z,1007.14
2019-05-03T05:12:22.101Z,1007.21
2019-05-03T05:13:24.845Z,1007.17
2019-05-03T05:14:26.509Z,1007.19
2019-05-03T05:15:26.975Z,1007.19
2019-05-03T05:16:27.428Z,1007.20
2019-05-03T05:17:27.856Z,1007.21
2019-05-03T05:18:28.313Z,1007.25
2019-05-03T05:19:28.751Z,1007.26
2019-05-03T05:20:29.219Z,1007.24
2019-05-03T05:21:29.658Z,1007.23
2019-05-03T05:22:30.091Z,1007.27
2019-05-03T05:23:30.531Z,1007.24
2019-05-03T05:24:30.966Z,1007.34
2019-05-03T05:25:31.417Z,1007.31
2019-05-03T05:26:31.866Z,1007.33
2019-05-03T05:27:34.494Z,1007.26
2019-05-03T05:28:35.515Z,1007.32
2019-05-03T05:29:36.051Z,1007.35
2019-05-03T05:30:36.570Z,1007.37
2019-05-03T05:31:36.998Z,1007.31
2019-05-03T05:32:37.434Z,1007.37
2019-05-03T05:33:37.861Z,1007.35
2019-05-03T05:34:38.292Z,1007.39
2019-05-03T05:35:38.740Z,1007.43
2019-05-03T05:36:39.166Z,1007.40
2019-05-03T05:37:39.740Z,1007.41
2019-05-03T05:38:40.171Z,1007.34
2019-05-03T05:39:40.678Z,1007.38
2019-05-03T05:40:41.126Z,1007.37
2019-05-03T05:41:41.611Z,1007.41
2019-05-03T05:42:42.050Z,1007.43
2019-05-03T05:43:44.528Z,1007.43
2019-05-03T05:44:45.481Z,1007.38
2019-05-03T05:45:46.049Z,1007.46
2019-05-03T05:46:46.473Z,1007.36
2019-05-03T05:47:47.971Z,1007.37
2019-05-03T05:48:48.401Z,1007.39
2019-05-03T05:49:55.772Z,1007.39
2019-05-03T05:50:56.243Z,1007.32
2019-05-03T05:51:58.867Z,1007.41
2019-05-03T05:52:59.359Z,1007.41
2019-05-03T05:53:59.895Z,1007.41
2019-05-03T05:55:00.336Z,1007.38
2019-05-03T05:56:15.753Z,1007.41
2019-05-03T05:57:16.313Z,1007.43
2019-05-03T05:58:17.854Z,1007.43
2019-05-03T05:59:18.294Z,1007.43
2019-05-03T06:00:18.792Z,1007.43
2019-05-03T06:01:19.237Z,1007.43
2019-05-03T06:02:19.704Z,1007.39
2019-05-03T06:03:20.151Z,1007.43
2019-05-03T06:04:20.646Z,1007.43
2019-05-03T06:05:21.074Z,1007.47
2019-05-03T06:06:24.790Z,1007.44
2019-05-03T06:07:25.233Z,1007.45
2019-05-03T06:08:25.740Z,1007.45
2019-05-03T06:09:26.172Z,1007.46
2019-05-03T06:10:26.603Z,1007.48
2019-05-03T06:11:29.135Z,1007.47
2019-05-03T06:12:29.645Z,1007.52
2019-05-03T06:14:54.493Z,1007.42
2019-05-03T06:16:00.271Z,1007.51
2019-05-03T06:17:00.695Z,1007.53
2019-05-03T06:18:08.752Z,1007.56
2019-05-03T06:19:09.180Z,1007.47
2019-05-03T06:28:15.598Z,1007.48
2019-05-03T06:29:17.130Z,1007.54
2019-05-03T06:30:17.598Z,1007.55
2019-05-03T06:31:27.720Z,1007.52
2019-05-03T06:32:28.159Z,1007.52
2019-05-03T06:34:52.046Z,1007.53
2019-05-03T06:35:52.500Z,1007.56
2019-05-03T06:36:52.971Z,1007.54
2019-05-03T06:38:00.187Z,1007.57
2019-05-03T06:39:00.611Z,1007.55
2019-05-03T06:40:22.107Z,1007.57
2019-05-03T06:41:22.551Z,1007.50
2019-05-03T06:43:08.591Z,1007.61
2019-05-03T06:44:06.015Z,1007.56
2019-05-03T06:48:27.957Z,1007.52
2019-05-03T06:49:34.529Z,1007.49
2019-05-03T06:50:36.094Z,1007.53
2019-05-03T06:51:40.082Z,1007.49
2019-05-03T06:52:44.582Z,1007.49
2019-05-03T06:53:47.575Z,1007.54
2019-05-03T06:54:50.910Z,1007.48
2019-05-03T06:55:51.346Z,1007.45
2019-05-03T06:56:52.875Z,1007.46
2019-05-03T06:57:54.584Z,1007.50
2019-05-03T06:58:57.143Z,1007.50
2019-05-03T06:59:57.587Z,1007.51
2019-05-03T07:01:14.809Z,1007.48
2019-05-03T07:02:15.381Z,1007.46
2019-05-03T07:03:17.873Z,1007.45
2019-05-03T07:04:18.307Z,1007.47
2019-05-03T07:05:20.846Z,1007.49
2019-05-03T07:06:33.359Z,1007.46
2019-05-03T07:07:35.534Z,1007.48
2019-05-03T07:08:35.989Z,1007.55
2019-05-03T07:09:37.447Z,1007.52
2019-05-03T07:10:37.903Z,1007.52
2019-05-03T07:11:39.451Z,1007.54
2019-05-03T07:12:39.958Z,1007.55
2019-05-03T07:13:41.479Z,1007.52
2019-05-03T07:14:41.929Z,1007.53
2019-05-03T07:15:45.409Z,1007.60
2019-05-03T07:16:46.023Z,1007.59
2019-05-03T07:18:03.008Z,1007.58
2019-05-03T07:19:04.419Z,1007.64
2019-05-03T07:20:05.118Z,1007.64
2019-05-03T07:21:05.574Z,1007.59
2019-05-03T07:22:06.143Z,1007.60
2019-05-03T07:23:06.580Z,1007.60
2019-05-03T07:24:09.100Z,1007.58
2019-05-03T07:25:09.529Z,1007.61
2019-05-03T07:26:11.047Z,1007.54
2019-05-03T07:27:11.506Z,1007.59
2019-05-03T07:28:12.032Z,1007.60
2019-05-03T07:29:12.471Z,1007.65
2019-05-03T07:30:19.591Z,1007.59
2019-05-03T07:31:20.107Z,1007.56
2019-05-03T07:32:20.691Z,1007.61
2019-05-03T07:33:21.121Z,1007.58
2019-05-03T07:34:24.612Z,1007.56
2019-05-03T07:35:25.311Z,1007.50
2019-05-03T07:36:28.362Z,1007.54
2019-05-03T07:37:28.934Z,1007.44
2019-05-03T07:38:31.433Z,1007.49
2019-05-03T07:39:31.870Z,1007.49
2019-05-03T07:40:38.997Z,1007.45
2019-05-03T07:41:39.443Z,1007.50
2019-05-03T07:42:47.558Z,1007.49
2019-05-03T07:43:47.989Z,1007.41
2019-05-03T07:44:55.982Z,1007.38
2019-05-03T07:45:56.488Z,1007.42
2019-05-03T07:46:57.005Z,1007.46
2019-05-03T07:47:57.434Z,1007.41
2019-05-03T07:49:05.136Z,1007.51
2019-05-03T07:50:05.678Z,1007.51
2019-05-03T07:51:06.108Z,1007.54
2019-05-03T07:52:06.657Z,1007.48
2019-05-03T07:53:07.099Z,1007.49
2019-05-03T07:54:07.532Z,1007.49
2019-05-03T07:55:24.995Z,1007.49
2019-05-03T07:56:25.594Z,1007.54
2019-05-03T07:57:28.123Z,1007.51
2019-05-03T07:58:28.576Z,1007.54
2019-05-03T07:59:50.011Z,1007.56
2019-05-03T08:01:03.541Z,1007.52
2019-05-03T08:02:05.560Z,1007.55
2019-05-03T08:03:06.285Z,1007.52
2019-05-03T08:04:35.901Z,1007.48
2019-05-03T08:05:36.515Z,1007.46
2019-05-03T08:06:54.906Z,1007.50
2019-05-03T08:07:55.514Z,1007.52
2019-05-03T08:08:57.982Z,1007.54
2019-05-03T08:09:58.425Z,1007.52
2019-05-03T08:11:00.864Z,1007.57
2019-05-03T08:12:01.495Z,1007.61
2019-05-03T08:13:06.030Z,1007.57
2019-05-03T08:14:06.457Z,1007.59
2019-05-03T08:15:21.480Z,1007.52
2019-05-03T08:16:21.900Z,1007.46
2019-05-03T08:21:10.362Z,1007.53
2019-05-03T08:22:10.797Z,1007.53
2019-05-03T08:23:30.026Z,1007.50
2019-05-03T08:24:30.852Z,1007.57
2019-05-03T08:25:38.105Z,1007.56
2019-05-03T08:26:38.538Z,1007.61
2019-05-03T08:27:44.704Z,1007.58
2019-05-03T08:28:45.159Z,1007.69
2019-05-03T08:29:52.576Z,1007.61
2019-05-03T08:30:54.320Z,1007.59
2019-05-03T08:31:55.977Z,1007.67
2019-05-03T08:32:56.457Z,1007.60
2019-05-03T08:34:04.845Z,1007.55
2019-05-03T08:35:05.441Z,1007.62
2019-05-03T08:36:07.049Z,1007.61
2019-05-03T08:37:07.479Z,1007.65
2019-05-03T08:38:09.061Z,1007.64
2019-05-03T08:39:09.515Z,1007.61
2019-05-03T08:40:11.080Z,1007.59
2019-05-03T08:41:11.507Z,1007.61
2019-05-03T08:42:11.951Z,1007.62
2019-05-03T08:43:12.570Z,1007.60
2019-05-03T08:44:14.521Z,1007.60
2019-05-03T08:45:15.088Z,1007.52
2019-05-03T08:46:15.509Z,1007.61
2019-05-03T08:47:16.141Z,1007.55
2019-05-03T08:48:16.586Z,1007.59
2019-05-03T08:49:17.180Z,1007.59
2019-05-03T08:50:21.456Z,1007.56
2019-05-03T08:51:24.986Z,1007.56
2019-05-03T08:52:25.619Z,1007.52
2019-05-03T08:53:26.336Z,1007.51
2019-05-03T08:54:26.762Z,1007.58
2019-05-03T08:55:31.102Z,1007.54
2019-05-03T08:56:31.778Z,1007.49
2019-05-03T08:57:32.308Z,1007.50
2019-05-03T08:58:34.650Z,1007.43
2019-05-03T08:59:36.320Z,1007.46
2019-05-03T09:00:36.752Z,1007.54
2019-05-03T09:01:39.415Z,1007.52
2019-05-03T09:02:39.982Z,1007.46
2019-05-03T09:03:45.742Z,1007.47
2019-05-03T09:04:46.469Z,1007.47
2019-05-03T09:05:47.033Z,1007.56
2019-05-03T09:06:47.517Z,1007.53
2019-05-03T09:09:04.701Z,1007.55
2019-05-03T09:10:05.541Z,1007.56
2019-05-03T09:11:06.031Z,1007.48
2019-05-03T09:12:06.461Z,1007.47
2019-05-03T09:13:07.983Z,1007.42
2019-05-03T09:14:08.421Z,1007.44
2019-05-03T09:15:17.494Z,1007.43
2019-05-03T09:16:18.107Z,1007.37
2019-05-03T09:17:18.625Z,1007.46
2019-05-03T09:18:19.094Z,1007.41
2019-05-03T09:19:20.592Z,1007.47
2019-05-03T09:20:21.064Z,1007.47
2019-05-03T09:21:22.546Z,1007.44
2019-05-03T09:22:22.981Z,1007.45
2019-05-03T09:23:27.013Z,1007.51
2019-05-03T09:24:27.486Z,1007.45
2019-05-03T09:25:28.139Z,1007.46
2019-05-03T09:26:29.575Z,1007.47
2019-05-03T09:27:30.309Z,1007.53
2019-05-03T09:28:30.957Z,1007.53
2019-05-03T09:29:48.001Z,1007.50
2019-05-03T09:30:48.426Z,1007.47
2019-05-03T09:31:49.950Z,1007.49
2019-05-03T09:32:50.374Z,1007.48
2019-05-03T09:33:51.952Z,1007.51
2019-05-03T09:34:52.391Z,1007.50
2019-05-03T09:35:54.913Z,1007.53
2019-05-03T09:36:55.519Z,1007.41
2019-05-03T09:37:56.040Z,1007.47
2019-05-03T09:38:56.495Z,1007.45
2019-05-03T09:39:56.971Z,1007.47
2019-05-03T09:40:57.399Z,1007.44
2019-05-03T09:41:57.913Z,1007.40
2019-05-03T09:42:58.352Z,1007.42
2019-05-03T09:43:59.112Z,1007.44
2019-05-03T09:44:59.563Z,1007.40
2019-05-03T09:46:02.216Z,1007.47
2019-05-03T09:47:02.648Z,1007.35
2019-05-03T09:48:05.447Z,1007.38
2019-05-03T09:49:13.683Z,1007.36
2019-05-03T09:50:15.665Z,1007.38
2019-05-03T09:51:16.274Z,1007.41
2019-05-03T09:52:16.714Z,1007.43
2019-05-03T09:53:17.313Z,1007.35
2019-05-03T09:54:17.755Z,1007.40
2019-05-03T09:55:18.550Z,1007.36
2019-05-03T09:56:18.997Z,1007.37
2019-05-03T09:57:21.576Z,1007.38
2019-05-03T09:58:22.011Z,1007.39
2019-05-03T09:59:31.519Z,1007.34
2019-05-03T10:00:31.957Z,1007.35
2019-05-03T10:01:34.644Z,1007.30
2019-05-03T10:02:35.356Z,1007.26
2019-05-03T10:03:39.057Z,1007.20
2019-05-03T10:04:39.499Z,1007.14
2019-05-03T10:05:39.996Z,1007.15
2019-05-03T10:06:40.542Z,1007.17
2019-05-03T10:07:40.981Z,1007.17
2019-05-03T10:08:41.698Z,1007.14
2019-05-03T10:09:42.139Z,1007.15
2019-05-03T10:10:42.617Z,1007.16
2019-05-03T10:11:45.547Z,1007.21
2019-05-03T10:12:46.522Z,1007.16
2019-05-03T10:13:48.586Z,1007.17
2019-05-03T10:14:49.442Z,1007.17
2019-05-03T10:15:49.910Z,1007.25
2019-05-03T10:17:05.467Z,1007.19
2019-05-03T10:18:10.772Z,1007.15
2019-05-03T10:19:14.380Z,1007.20
2019-05-03T10:20:16.625Z,1007.22
2019-05-03T10:21:17.070Z,1007.20
2019-05-03T10:22:17.511Z,1007.24
2019-05-03T10:23:17.945Z,1007.19
2019-05-03T10:24:18.411Z,1007.14
2019-05-03T10:25:18.835Z,1007.12
2019-05-03T10:26:19.270Z,1007.15
2019-05-03T10:27:19.700Z,1007.08
2019-05-03T10:28:26.994Z,1007.07
2019-05-03T10:29:27.480Z,1007.09
2019-05-03T10:30:37.042Z,1007.05
2019-05-03T10:31:37.475Z,1007.10
2019-05-03T10:32:39.027Z,1007.00
2019-05-03T10:33:39.477Z,1007.01
2019-05-03T10:34:45.526Z,1007.04
2019-05-03T10:35:45.991Z,1007.07
2019-05-03T10:36:47.561Z,1007.06
2019-05-03T10:37:48.081Z,1007.03
2019-05-03T10:39:05.568Z,1007.03
2019-05-03T10:40:08.141Z,1007.03
2019-05-03T10:41:08.960Z,1007.02
2019-05-03T10:42:09.397Z,1007.01
2019-05-03T10:43:16.446Z,1007.00
2019-05-03T10:44:16.917Z,1007.04
2019-05-03T10:45:18.515Z,1007.04
2019-05-03T10:46:18.959Z,1007.05
2019-05-03T10:47:21.494Z,1007.01
2019-05-03T10:48:21.918Z,1007.01
2019-05-03T10:49:24.673Z,1007.00
2019-05-03T10:50:25.388Z,1007.04
2019-05-03T10:51:26.041Z,1007.02
2019-05-03T10:52:26.477Z,1007.05
2019-05-03T10:53:28.095Z,1007.07
2019-05-03T10:54:28.555Z,1007.06
2019-05-03T10:55:28.983Z,1007.07
2019-05-03T10:56:29.413Z,1007.00
2019-05-03T10:57:29.961Z,1007.07
2019-05-03T10:58:30.406Z,1007.07
2019-05-03T10:59:31.094Z,1007.09
2019-05-03T11:00:45.000Z,1007.11
2019-05-03T11:01:38.235Z,1007.03
2019-05-03T11:02:38.669Z,1006.98
2019-05-03T11:03:39.157Z,1007.04
2019-05-03T11:04:39.671Z,1007.02
2019-05-03T11:05:40.105Z,1007.07
2019-05-03T11:06:40.632Z,1007.05
2019-05-03T11:07:41.051Z,1006.98
2019-05-03T11:08:41.478Z,1007.02
2019-05-03T11:09:49.763Z,1007.05
2019-05-03T11:10:49.572Z,1007.01
2019-05-03T11:11:56.939Z,1007.02
2019-05-03T11:12:57.366Z,1006.97
2019-05-03T11:13:57.873Z,1006.93
2019-05-03T11:14:58.328Z,1006.98
2019-05-03T11:15:58.802Z,1006.96
2019-05-03T11:17:00.597Z,1006.97
2019-05-03T11:18:01.258Z,1006.96
2019-05-03T11:19:01.707Z,1006.86
2019-05-03T11:20:02.222Z,1006.93
2019-05-03T11:21:02.652Z,1006.86
2019-05-03T11:22:05.251Z,1006.93
2019-05-03T11:23:06.172Z,1006.96
2019-05-03T11:24:06.663Z,1006.89
2019-05-03T11:25:07.180Z,1006.87
2019-05-03T11:26:07.639Z,1006.84
2019-05-03T11:27:08.239Z,1006.76
2019-05-03T11:28:08.696Z,1006.81
2019-05-03T11:29:09.124Z,1006.74
2019-05-03T11:30:09.937Z,1006.75
2019-05-03T11:31:10.408Z,1006.78
2019-05-03T11:32:11.764Z,1006.78
2019-05-03T11:33:12.346Z,1006.67
2019-05-03T11:34:15.101Z,1006.64
2019-05-03T11:35:15.675Z,1006.72
2019-05-03T11:36:16.128Z,1006.75
2019-05-03T11:37:16.620Z,1006.80
2019-05-03T11:38:18.273Z,1006.72
2019-05-03T11:39:18.847Z,1006.81
2019-05-03T11:40:20.381Z,1006.81
2019-05-03T11:41:30.283Z,1006.81
2019-05-03T11:42:27.225Z,1006.72
2019-05-03T11:43:27.728Z,1006.76
2019-05-03T11:44:28.159Z,1006.79
2019-05-03T11:45:28.624Z,1006.76
2019-05-03T11:46:29.059Z,1006.81
2019-05-03T11:47:29.750Z,1006.74
2019-05-03T11:48:30.187Z,1006.78
2019-05-03T11:49:30.672Z,1006.79
2019-05-03T11:50:31.133Z,1006.79
2019-05-03T11:51:32.665Z,1006.75
2019-05-03T11:52:35.348Z,1006.70
2019-05-03T11:53:36.099Z,1006.64
2019-05-03T11:54:36.530Z,1006.70
2019-05-03T11:55:37.880Z,1006.78
2019-05-03T11:56:38.332Z,1006.66
2019-05-03T11:57:38.895Z,1006.73
2019-05-03T11:58:39.320Z,1006.70
2019-05-03T11:59:39.821Z,1006.63
2019-05-03T12:00:40.265Z,1006.76
2019-05-03T12:01:40.754Z,1006.63
2019-05-03T12:02:41.242Z,1006.62
2019-05-03T12:03:48.467Z,1006.60
2019-05-03T12:04:48.890Z,1006.61
2019-05-03T12:05:49.419Z,1006.54
2019-05-03T12:06:49.857Z,1006.59
2019-05-03T12:07:50.314Z,1006.55
2019-05-03T12:08:51.876Z,1006.56
2019-05-03T12:09:54.577Z,1006.59
2019-05-03T12:11:01.059Z,1006.58
2019-05-03T12:12:04.775Z,1006.52
2019-05-03T12:13:05.397Z,1006.53
2019-05-03T12:14:06.905Z,1006.51
2019-05-03T12:15:10.982Z,1006.49
2019-05-03T12:16:20.593Z,1006.48
2019-05-03T12:17:25.825Z,1006.54
2019-05-03T12:18:25.114Z,1006.53
2019-05-03T12:19:31.187Z,1006.51
2019-05-03T12:20:33.067Z,1006.48
2019-05-03T12:21:39.184Z,1006.41
2019-05-03T12:22:40.687Z,1006.51
2019-05-03T12:23:42.314Z,1006.48
2019-05-03T12:24:45.770Z,1006.43
2019-05-03T12:25:47.375Z,1006.37
2019-05-03T12:26:48.225Z,1006.28
2019-05-03T12:27:50.763Z,1006.37
2019-05-03T12:28:51.251Z,1006.32
2019-05-03T12:29:52.704Z,1006.31
2019-05-03T12:30:53.138Z,1006.36
2019-05-03T12:31:54.806Z,1006.30
2019-05-03T12:32:55.546Z,1006.38
2019-05-03T12:33:56.655Z,1006.29
2019-05-03T12:34:57.261Z,1006.32
2019-05-03T12:35:59.029Z,1006.32
2019-05-03T12:36:59.475Z,1006.33
2019-05-03T12:37:59.931Z,1006.35
2019-05-03T12:39:00.465Z,1006.32
2019-05-03T12:40:00.923Z,1006.36
2019-05-03T12:41:02.467Z,1006.32
2019-05-03T12:42:02.918Z,1006.35
2019-05-03T12:43:05.787Z,1006.37
2019-05-03T12:44:06.559Z,1006.29
2019-05-03T12:45:15.278Z,1006.28
2019-05-03T12:46:16.844Z,1006.30
2019-05-03T12:47:17.441Z,1006.27
2019-05-03T12:48:17.944Z,1006.29
2019-05-03T12:49:18.368Z,1006.28
2019-05-03T12:50:18.804Z,1006.32
2019-05-03T12:51:25.177Z,1006.27
2019-05-03T12:52:26.948Z,1006.27
2019-05-03T12:53:27.855Z,1006.27
2019-05-03T12:54:30.375Z,1006.22
2019-05-03T12:55:30.817Z,1006.22